createdAt,value
2023-03-22T00:01:32.482Z,9.49
2023-03-22T00:04:01.538Z,9.40
2023-03-22T00:06:31.449Z,9.47
2023-03-22T00:08:59.870Z,9.49
2023-03-22T00:11:27.998Z,9.44
2023-03-22T00:13:56.428Z,9.49
2023-03-22T00:16:24.839Z,9.43
2023-03-22T00:18:53.299Z,9.39
2023-03-22T00:21:22.122Z,9.40
2023-03-22T00:23:52.279Z,9.33
2023-03-22T00:26:20.356Z,9.36
2023-03-22T00:28:48.666Z,9.41
2023-03-22T00:31:17.476Z,9.38
2023-03-22T00:33:45.921Z,9.43
2023-03-22T00:36:14.795Z,9.40
2023-03-22T00:38:44.387Z,9.45
2023-03-22T00:41:16.964Z,9.41
2023-03-22T00:43:46.545Z,9.46
2023-03-22T00:46:15.948Z,9.50
2023-03-22T00:48:44.620Z,9.50
2023-03-22T00:51:14.189Z,9.43
2023-03-22T00:53:43.722Z,9.54
2023-03-22T00:56:15.788Z,9.50
2023-03-22T00:58:56.523Z,9.47
2023-03-22T01:01:24.691Z,9.42
2023-03-22T01:03:52.664Z,9.46
2023-03-22T01:06:21.502Z,9.40
2023-03-22T01:08:50.866Z,9.37
2023-03-22T01:11:20.397Z,9.25
2023-03-22T01:13:49.005Z,9.20
2023-03-22T01:16:18.201Z,9.20
2023-03-22T01:18:46.424Z,9.25
2023-03-22T01:21:14.770Z,9.18
2023-03-22T01:23:42.886Z,9.12
2023-03-22T01:26:11.170Z,9.14
2023-03-22T01:28:41.165Z,9.13
2023-03-22T01:31:09.303Z,9.11
2023-03-22T01:33:37.778Z,9.10
2023-03-22T01:36:06.580Z,9.14
2023-03-22T01:38:35.783Z,9.18
2023-03-22T01:41:03.789Z,9.23
2023-03-22T01:43:35.363Z,9.11
2023-03-22T01:46:05.152Z,9.11
2023-03-22T01:48:34.503Z,9.13
2023-03-22T01:51:07.263Z,9.14
2023-03-22T01:53:44.304Z,9.10
2023-03-22T01:56:13.331Z,9.03
2023-03-22T01:58:42.684Z,9.02
2023-03-22T02:01:13.673Z,8.98
2023-03-22T02:03:52.516Z,9.05
2023-03-22T02:06:21.661Z,9.04
2023-03-22T02:08:58.069Z,8.97
2023-03-22T02:11:32.206Z,9.11
2023-03-22T02:14:16.640Z,9.01
2023-03-22T02:17:10.411Z,9.07
2023-03-22T02:20:20.883Z,8.95
2023-03-22T02:23:01.042Z,8.86
2023-03-22T02:25:45.135Z,8.92
2023-03-22T02:28:19.159Z,8.92
2023-03-22T02:31:04.696Z,8.89
2023-03-22T02:33:56.991Z,8.83
2023-03-22T02:36:42.636Z,8.78
2023-03-22T02:39:25.422Z,8.77
2023-03-22T02:42:13.597Z,8.77
2023-03-22T02:44:44.100Z,8.80
2023-03-22T02:47:21.612Z,8.84
2023-03-22T02:49:55.407Z,8.87
2023-03-22T02:52:27.895Z,8.83
2023-03-22T02:55:04.223Z,8.84
2023-03-22T02:57:37.589Z,8.75
2023-03-22T03:00:08.935Z,8.74
2023-03-22T03:02:38.183Z,8.70
2023-03-22T03:05:07.753Z,8.64
2023-03-22T03:07:36.352Z,8.59
2023-03-22T03:10:07.581Z,8.53
2023-03-22T03:12:35.505Z,8.49
2023-03-22T03:15:03.634Z,8.52
2023-03-22T03:17:41.358Z,8.53
2023-03-22T03:20:22.031Z,8.51
2023-03-22T03:22:57.894Z,8.52
2023-03-22T03:25:32.623Z,8.55
2023-03-22T03:28:06.485Z,8.65
2023-03-22T03:30:39.070Z,8.60
2023-03-22T03:33:10.659Z,8.68
2023-03-22T03:35:40.873Z,8.73
2023-03-22T03:38:14.841Z,8.70
2023-03-22T03:40:46.642Z,8.72
2023-03-22T03:43:15.591Z,8.76
2023-03-22T03:45:43.762Z,8.74
2023-03-22T03:48:14.930Z,8.79
2023-03-22T03:50:43.191Z,8.89
2023-03-22T03:53:12.705Z,8.82
2023-03-22T03:55:40.684Z,8.83
2023-03-22T03:58:10.079Z,8.89
2023-03-22T04:00:38.640Z,8.95
2023-03-22T04:03:25.832Z,8.89
2023-03-22T04:06:29.203Z,9.01
2023-03-22T04:09:06.596Z,9.01
2023-03-22T04:11:42.274Z,9.01
2023-03-22T04:14:11.575Z,9.09
2023-03-22T04:16:39.770Z,8.97
2023-03-22T04:19:11.000Z,8.94
2023-03-22T04:21:39.117Z,8.95
2023-03-22T04:24:08.277Z,8.94
2023-03-22T04:26:39.681Z,8.97
2023-03-22T04:29:18.794Z,9.01
2023-03-22T04:31:53.082Z,8.88
2023-03-22T04:34:40.450Z,8.99
2023-03-22T04:37:17.027Z,8.87
2023-03-22T04:39:59.940Z,8.85
2023-03-22T04:42:44.862Z,8.88
2023-03-22T04:45:25.109Z,8.90
2023-03-22T04:47:57.976Z,8.94
2023-03-22T04:50:28.265Z,8.94
2023-03-22T04:53:00.717Z,8.95
2023-03-22T04:55:30.067Z,8.90
2023-03-22T04:57:57.962Z,8.90
2023-03-22T05:00:30.466Z,8.95
2023-03-22T05:03:00.002Z,8.94
2023-03-22T05:05:34.548Z,9.00
2023-03-22T05:08:04.055Z,9.04
2023-03-22T05:10:32.119Z,9.00
2023-03-22T05:13:00.008Z,8.96
2023-03-22T05:15:33.885Z,8.96
2023-03-22T05:18:04.378Z,8.92
2023-03-22T05:20:32.596Z,8.96
2023-03-22T05:23:21.194Z,9.00
2023-03-22T05:25:53.941Z,8.96
2023-03-22T05:28:23.428Z,9.05
2023-03-22T05:31:15.566Z,8.98
2023-03-22T05:33:50.519Z,8.98
2023-03-22T05:36:22.918Z,9.09
2023-03-22T05:39:08.987Z,9.09
2023-03-22T05:41:37.134Z,9.04
2023-03-22T05:44:06.228Z,9.10
2023-03-22T05:46:41.121Z,9.19
2023-03-22T05:49:27.817Z,9.14
2023-03-22T05:51:56.007Z,9.19
2023-03-22T05:54:26.573Z,9.25
2023-03-22T05:56:55.767Z,9.25
2023-03-22T05:59:24.276Z,9.23
2023-03-22T06:01:53.610Z,9.24
2023-03-22T06:04:24.498Z,9.27
2023-03-22T06:07:04.100Z,9.28
2023-03-22T06:09:49.544Z,9.33
2023-03-22T06:12:24.802Z,9.36
2023-03-22T06:15:06.887Z,9.25
2023-03-22T06:17:39.016Z,9.33
2023-03-22T06:20:11.980Z,9.34
2023-03-22T06:22:43.460Z,9.53
2023-03-22T06:25:12.033Z,9.48
2023-03-22T06:27:46.633Z,9.52
2023-03-22T06:30:15.011Z,9.49
2023-03-22T06:33:05.226Z,9.54
2023-03-22T06:35:36.963Z,9.54
2023-03-22T06:38:06.368Z,9.71
2023-03-22T06:40:35.799Z,9.66
2023-03-22T06:43:06.921Z,9.74
2023-03-22T06:45:36.618Z,9.69
2023-03-22T06:48:07.840Z,9.81
2023-03-22T06:50:48.563Z,9.89
2023-03-22T06:53:24.578Z,9.98
2023-03-22T06:55:55.233Z,10.02
2023-03-22T06:58:24.986Z,10.11
2023-03-22T07:00:52.902Z,10.26
2023-03-22T07:03:25.389Z,10.21
2023-03-22T07:06:01.492Z,10.37
2023-03-22T07:08:31.965Z,10.40
2023-03-22T07:10:59.966Z,10.49
2023-03-22T07:13:28.130Z,10.50
2023-03-22T07:16:02.013Z,10.76
2023-03-22T07:18:51.554Z,10.80
2023-03-22T07:21:19.594Z,10.85
2023-03-22T07:23:52.376Z,10.92
2023-03-22T07:26:22.364Z,10.75
2023-03-22T07:28:51.287Z,10.93
2023-03-22T07:31:21.565Z,11.11
2023-03-22T07:34:03.167Z,11.02
2023-03-22T07:36:38.561Z,11.03
2023-03-22T07:39:10.061Z,11.04
2023-03-22T07:41:42.855Z,11.02
2023-03-22T07:44:47.451Z,11.07
2023-03-22T07:47:37.735Z,11.12
2023-03-22T07:50:21.739Z,11.15
2023-03-22T07:52:54.790Z,11.09
2023-03-22T07:55:22.699Z,11.41
2023-03-22T07:57:51.238Z,11.62
2023-03-22T08:00:21.233Z,11.41
2023-03-22T08:03:02.946Z,11.26
2023-03-22T08:05:52.777Z,11.50
2023-03-22T08:08:21.787Z,11.59
2023-03-22T08:10:51.293Z,11.58
2023-03-22T08:13:19.351Z,11.60
2023-03-22T08:15:47.233Z,11.80
2023-03-22T08:18:15.583Z,11.98
2023-03-22T08:20:45.730Z,11.81
2023-03-22T08:23:28.776Z,11.97
2023-03-22T08:26:28.511Z,11.91
2023-03-22T08:28:59.794Z,11.89
2023-03-22T08:31:31.678Z,11.76
2023-03-22T08:34:00.166Z,11.76
2023-03-22T08:36:29.107Z,11.86
2023-03-22T08:39:02.477Z,11.90
2023-03-22T08:41:44.054Z,11.86
2023-03-22T08:44:12.002Z,11.91
2023-03-22T08:46:41.060Z,11.94
2023-03-22T08:49:10.514Z,11.88
2023-03-22T08:51:47.465Z,12.03
2023-03-22T08:54:20.791Z,11.96
2023-03-22T08:56:54.598Z,12.04
2023-03-22T08:59:41.699Z,12.28
2023-03-22T09:02:24.200Z,12.33
2023-03-22T09:04:53.750Z,12.20
2023-03-22T09:07:22.671Z,12.42
2023-03-22T09:10:02.420Z,12.33
2023-03-22T09:12:30.851Z,12.54
2023-03-22T09:14:58.811Z,12.58
2023-03-22T09:17:29.049Z,12.60
2023-03-22T09:20:11.135Z,12.67
2023-03-22T09:22:41.930Z,12.67
2023-03-22T09:25:13.322Z,12.60
2023-03-22T09:27:43.916Z,12.65
2023-03-22T09:30:15.010Z,12.58
2023-03-22T09:32:43.187Z,12.69
2023-03-22T09:35:13.493Z,12.71
2023-03-22T09:37:56.316Z,12.67
2023-03-22T09:40:28.790Z,12.76
2023-03-22T09:42:57.958Z,12.80
2023-03-22T09:45:32.974Z,12.97
2023-03-22T09:48:01.148Z,13.06
2023-03-22T09:50:31.720Z,12.89
2023-03-22T09:53:00.060Z,12.89
2023-03-22T09:55:33.676Z,12.94
2023-03-22T09:58:06.658Z,12.99
2023-03-22T10:00:40.015Z,13.21
2023-03-22T10:03:17.402Z,13.23
2023-03-22T10:05:47.427Z,13.49
2023-03-22T10:08:26.956Z,13.49
2023-03-22T10:10:56.191Z,13.33
2023-03-22T10:13:28.820Z,13.27
2023-03-22T10:15:59.625Z,13.59
2023-03-22T10:18:30.015Z,13.33
2023-03-22T10:21:01.233Z,13.44
2023-03-22T10:23:32.107Z,13.29
2023-03-22T10:26:02.177Z,13.39
2023-03-22T10:28:32.801Z,13.33
2023-03-22T10:31:00.781Z,13.57
2023-03-22T10:33:38.993Z,13.45
2023-03-22T10:36:11.708Z,13.55
2023-03-22T10:38:46.596Z,13.48
2023-03-22T10:41:18.586Z,13.64
2023-03-22T10:43:49.776Z,13.92
2023-03-22T10:46:21.171Z,13.93
2023-03-22T10:48:51.191Z,13.77
2023-03-22T10:51:25.928Z,13.83
2023-03-22T10:53:56.186Z,14.15
2023-03-22T10:56:25.683Z,14.36
2023-03-22T10:58:53.865Z,14.67
2023-03-22T11:01:27.904Z,14.43
2023-03-22T11:03:58.337Z,14.25
2023-03-22T11:06:29.861Z,14.07
2023-03-22T11:09:00.332Z,13.98
2023-03-22T11:11:31.078Z,13.99
2023-03-22T11:14:05.640Z,14.03
2023-03-22T11:16:42.367Z,14.18
2023-03-22T11:19:15.460Z,14.32
2023-03-22T11:21:44.358Z,14.38
2023-03-22T11:24:14.247Z,14.39
2023-03-22T11:26:45.020Z,14.54
2023-03-22T11:29:15.631Z,14.43
2023-03-22T11:31:58.371Z,14.88
2023-03-22T11:34:28.652Z,14.87
2023-03-22T11:36:57.871Z,15.17
2023-03-22T11:39:28.362Z,15.38
2023-03-22T11:42:01.386Z,15.45
2023-03-22T11:44:34.008Z,15.16
2023-03-22T11:47:03.364Z,15.18
2023-03-22T11:49:39.295Z,15.19
2023-03-22T11:52:12.828Z,15.16
2023-03-22T11:54:42.498Z,14.98
2023-03-22T11:57:17.040Z,14.81
2023-03-22T11:59:50.098Z,14.79
2023-03-22T12:02:22.100Z,14.92
2023-03-22T12:04:51.763Z,14.85
2023-03-22T12:07:24.485Z,14.82
2023-03-22T12:09:58.967Z,14.92
2023-03-22T12:12:31.839Z,15.21
2023-03-22T12:15:03.728Z,15.42
2023-03-22T12:17:36.745Z,15.48
2023-03-22T12:20:11.873Z,15.40
2023-03-22T12:22:43.353Z,15.45
2023-03-22T12:25:14.941Z,15.55
2023-03-22T12:27:47.356Z,15.38
2023-03-22T12:30:18.144Z,15.47
2023-03-22T12:32:49.067Z,15.43
2023-03-22T12:35:22.981Z,15.22
2023-03-22T12:37:53.488Z,15.11
2023-03-22T12:40:24.825Z,14.96
2023-03-22T12:43:00.617Z,15.02
2023-03-22T12:45:31.308Z,15.10
2023-03-22T12:48:03.109Z,14.88
2023-03-22T12:50:35.464Z,14.90
2023-03-22T12:53:04.553Z,14.94
2023-03-22T12:55:34.264Z,15.01
2023-03-22T12:58:06.614Z,15.01
2023-03-22T13:00:37.190Z,14.95
2023-03-22T13:03:10.572Z,15.15
2023-03-22T13:05:38.851Z,15.08
2023-03-22T13:08:06.977Z,15.10
2023-03-22T13:11:05.978Z,14.82
2023-03-22T13:13:42.543Z,15.00
2023-03-22T13:16:25.092Z,15.14
2023-03-22T13:19:02.280Z,15.24
2023-03-22T13:21:31.642Z,15.28
2023-03-22T13:24:02.066Z,15.18
2023-03-22T13:26:35.154Z,15.12
2023-03-22T13:29:11.931Z,15.24
2023-03-22T13:31:44.071Z,15.12
2023-03-22T13:34:16.056Z,15.27
2023-03-22T13:36:51.822Z,15.36
2023-03-22T13:39:22.908Z,15.13
2023-03-22T13:42:02.460Z,15.12
2023-03-22T13:44:38.224Z,14.98
2023-03-22T13:47:10.172Z,14.88
2023-03-22T13:49:48.062Z,14.81
2023-03-22T13:52:28.781Z,14.81
2023-03-22T13:54:58.890Z,14.72
2023-03-22T13:57:47.690Z,14.83
2023-03-22T14:00:35.180Z,14.72
2023-03-22T14:03:05.335Z,14.79
2023-03-22T14:05:36.655Z,14.93
2023-03-22T14:08:05.381Z,14.87
2023-03-22T14:10:38.802Z,14.98
2023-03-22T14:13:15.878Z,14.97
2023-03-22T14:15:48.705Z,14.84
2023-03-22T14:18:17.393Z,14.81
2023-03-22T14:20:45.692Z,14.85
